Time;durP1;ratioP1;P1;durP2;ratioP2;P2;SDS_P1;SDS_P2;PMS_P1;PMS_P2;Temp;Humidity;BMP_temperature;BMP_pressure;BME280_temperature;BME280_humidity;BME280_pressure;Samples;Min_cycle;Max_cycle;Signal;HPM_P1;HPM_P2
2023/04/27 04:41:01;;;;;;;14.70;8.80;;;;;;;11.39;100.00;99309.23;109526;1270;22374;-48
2023/04/27 04:43:30;;;;;;;10.10;7.20;;;;;;;11.41;100.00;99306.73;106889;1254;25300;-50
2023/04/27 04:46:00;;;;;;;14.60;8.90;;;;;;;11.42;100.00;99307.43;108356;1272;26567;-47
2023/04/27 04:48:28;;;;;;;10.70;7.30;;;;;;;11.43;100.00;99303.23;107544;1277;25315;-58
2023/04/27 04:50:55;;;;;;;9.60;6.90;;;;;;;11.43;100.00;99300.61;107786;1277;22510;-57
2023/04/27 04:53:22;;;;;;;9.20;7.50;;;;;;;11.43;100.00;99303.75;107748;1277;22537;-59
2023/04/27 04:55:49;;;;;;;7.90;7.10;;;;;;;11.44;100.00;99301.27;107720;1276;25277;-57
2023/04/27 04:58:16;;;;;;;9.70;7.80;;;;;;;11.47;100.00;99298.94;107335;1277;24201;-59
2023/04/27 05:00:44;;;;;;;10.40;7.60;;;;;;;11.49;100.00;99300.84;107468;1274;22543;-59
2023/04/27 05:03:11;;;;;;;9.10;7.50;;;;;;;11.52;100.00;99303.37;108986;1273;23006;-57
2023/04/27 05:05:38;;;;;;;11.00;7.80;;;;;;;11.57;100.00;99305.57;110076;1270;22189;-58
2023/04/27 05:08:05;;;;;;;7.70;6.80;;;;;;;11.60;100.00;99303.75;109999;1270;22375;-59
2023/04/27 05:10:32;;;;;;;11.10;7.00;;;;;;;11.64;100.00;99298.08;109981;1273;22365;-57
2023/04/27 05:12:59;;;;;;;9.90;7.40;;;;;;;11.68;100.00;99297.65;110105;1272;22285;-49
2023/04/27 05:15:26;;;;;;;19.40;9.30;;;;;;;11.72;100.00;99291.98;109908;1272;151927;-58
2023/04/27 05:17:53;;;;;;;10.20;7.20;;;;;;;11.77;100.00;99298.01;109853;1270;22386;-59
2023/04/27 05:20:20;;;;;;;11.00;7.40;;;;;;;11.80;100.00;99300.02;110050;1272;22359;-59
2023/04/27 05:22:47;;;;;;;9.60;7.30;;;;;;;11.83;100.00;99298.09;109797;1272;22519;-58
2023/04/27 05:25:17;;;;;;;9.40;7.70;;;;;;;11.84;100.00;99295.27;109640;1269;22318;-57
2023/04/27 05:27:44;;;;;;;9.30;7.30;;;;;;;11.86;100.00;99298.89;109728;1254;22538;-58
2023/04/27 05:30:12;;;;;;;10.40;7.20;;;;;;;11.89;100.00;99295.67;109438;1270;23464;-49
2023/04/27 05:32:39;;;;;;;8.60;7.60;;;;;;;11.93;100.00;99296.28;109542;1272;22928;-58
2023/04/27 05:35:12;;;;;;;9.80;7.70;;;;;;;11.97;100.00;99296.75;109236;1276;23264;-49
2023/04/27 05:37:40;;;;;;;10.50;7.50;;;;;;;11.99;100.00;99301.75;108957;1270;23218;-47
2023/04/27 05:40:15;;;;;;;9.00;6.90;;;;;;;12.01;100.00;99303.13;109493;1270;22530;-49
2023/04/27 05:42:45;;;;;;;8.40;7.00;;;;;;;12.02;100.00;99306.95;109166;1274;23211;-48
2023/04/27 05:45:55;;;;;;;10.60;6.80;;;;;;;12.04;100.00;99305.67;109171;1277;25223;-47
2023/04/27 05:49:09;;;;;;;11.20;7.80;;;;;;;12.07;100.00;99305.98;109726;1270;22327;-57
2023/04/27 05:52:29;;;;;;;11.50;8.70;;;;;;;12.08;100.00;99306.45;109662;1270;23711;-47
2023/04/27 05:55:12;;;;;;;11.50;8.70;;;;;;;12.15;100.00;99306.48;109774;1270;22510;-58
2023/04/27 05:57:40;;;;;;;13.30;8.20;;;;;;;12.19;100.00;99306.05;109785;1272;22715;-63
2023/04/27 06:00:30;;;;;;;12.60;8.00;;;;;;;12.23;100.00;99305.94;109577;1270;380231;-58
2023/04/27 06:03:07;;;;;;;9.80;6.80;;;;;;;12.27;100.00;99307.80;108769;1273;22593;-60
2023/04/27 06:05:44;;;;;;;9.00;6.40;;;;;;;12.32;100.00;99305.77;108283;1262;22579;-60
2023/04/27 06:08:51;;;;;;;12.70;8.00;;;;;;;12.39;100.00;99301.56;109047;1271;22273;-60
2023/04/27 06:11:33;;;;;;;10.70;6.50;;;;;;;12.49;100.00;99306.23;109363;1272;23530;-61
2023/04/27 06:14:05;;;;;;;12.60;6.60;;;;;;;12.57;100.00;99307.27;108883;1276;23071;-61
2023/04/27 06:16:33;;;;;;;10.10;7.70;;;;;;;12.64;100.00;99305.02;108893;1276;23721;-58
2023/04/27 06:19:32;;;;;;;9.10;6.80;;;;;;;12.71;100.00;99306.59;108993;1272;22380;-59
2023/04/27 06:31:17;;;;;;;8.40;6.80;;;;;;;12.84;100.00;99321.48;109259;1273;22370;-59
2023/04/27 06:38:30;;;;;;;8.40;7.00;;;;;;;12.96;100.00;99327.67;108781;1272;22286;-48
2023/04/27 06:40:59;;;;;;;10.10;6.90;;;;;;;12.99;100.00;99328.29;109458;1272;22412;-60
2023/04/27 06:43:26;;;;;;;8.50;7.60;;;;;;;12.99;100.00;99325.83;109622;1272;22487;-48
2023/04/27 06:45:53;;;;;;;9.20;7.70;;;;;;;13.01;100.00;99322.98;108885;1279;22413;-58
2023/04/27 06:48:20;;;;;;;12.30;7.50;;;;;;;13.02;100.00;99322.77;109711;1279;23119;-57
2023/04/27 06:50:50;;;;;;;9.00;7.80;;;;;;;13.07;100.00;99321.79;108856;1273;22423;-58
2023/04/27 06:53:19;;;;;;;11.50;7.70;;;;;;;13.14;100.00;99318.65;108170;1273;25293;-47
2023/04/27 06:55:46;;;;;;;9.50;7.50;;;;;;;13.25;100.00;99323.98;109466;1277;22279;-59
2023/04/27 06:58:14;;;;;;;11.60;7.90;;;;;;;13.38;100.00;99328.73;109827;1272;22873;-48
2023/04/27 07:00:41;;;;;;;12.20;7.20;;;;;;;13.49;100.00;99329.30;109780;1277;22234;-59
2023/04/27 07:03:08;;;;;;;11.60;6.90;;;;;;;13.61;100.00;99327.55;109032;1272;23884;-58
2023/04/27 07:05:37;;;;;;;8.80;7.80;;;;;;;13.74;100.00;99326.14;108878;1273;23126;-47
2023/04/27 07:08:05;;;;;;;12.00;7.30;;;;;;;13.86;100.00;99328.08;109114;1273;24463;-57
2023/04/27 07:10:34;;;;;;;10.70;7.70;;;;;;;13.92;100.00;99328.10;109723;1272;23068;-57
2023/04/27 07:13:02;;;;;;;11.20;7.40;;;;;;;13.95;100.00;99330.98;109629;1273;23074;-58
2023/04/27 07:15:32;;;;;;;13.00;6.60;;;;;;;13.95;100.00;99333.77;109569;1272;23622;-48
2023/04/27 07:17:59;;;;;;;10.30;8.00;;;;;;;13.94;100.00;99331.21;109618;1273;22876;-48
2023/04/27 07:20:26;;;;;;;7.30;6.20;;;;;;;13.87;100.00;99333.66;109540;1274;22553;-57
2023/04/27 07:22:52;;;;;;;6.50;5.50;;;;;;;13.75;100.00;99332.44;109076;1271;22402;-58
2023/04/27 07:25:20;;;;;;;7.90;5.60;;;;;;;13.55;100.00;99335.77;109535;1263;22427;-58
2023/04/27 07:27:47;;;;;;;6.80;5.10;;;;;;;13.35;100.00;99334.23;109741;1272;23481;-59
2023/04/27 07:30:35;;;;;;;5.40;4.20;;;;;;;13.13;100.00;99339.14;109543;1272;23095;-46
2023/04/27 07:33:02;;;;;;;7.00;4.10;;;;;;;12.85;100.00;99347.53;109626;1272;22355;-58
2023/04/27 07:35:29;;;;;;;4.80;4.20;;;;;;;12.61;100.00;99350.55;109192;1273;23238;-57
2023/04/27 07:38:02;;;;;;;3.40;3.10;;;;;;;12.38;100.00;99353.34;109858;1272;22415;-58
2023/04/27 07:40:29;;;;;;;3.30;2.80;;;;;;;12.17;100.00;99353.65;109783;1272;22493;-57
2023/04/27 07:42:57;;;;;;;4.20;2.60;;;;;;;11.96;100.00;99358.63;109943;1273;22348;-57
2023/04/27 07:45:33;;;;;;;2.60;2.30;;;;;;;11.78;100.00;99360.88;109340;1272;22344;-47
2023/04/27 07:48:00;;;;;;;3.80;2.90;;;;;;;11.64;100.00;99364.27;109526;1272;23422;-49
2023/04/27 07:50:29;;;;;;;3.40;2.80;;;;;;;11.54;100.00;99362.20;109077;1272;25278;-49
2023/04/27 07:52:56;;;;;;;3.70;2.60;;;;;;;11.47;100.00;99364.45;109626;1272;22526;-47
2023/04/27 07:55:23;;;;;;;3.80;2.10;;;;;;;11.39;100.00;99366.30;109154;1272;22380;-47
2023/04/27 07:57:55;;;;;;;2.00;1.80;;;;;;;11.28;100.00;99367.90;109527;1272;23253;-58
2023/04/27 08:00:22;;;;;;;1.80;1.70;;;;;;;11.14;100.00;99370.95;109596;1272;23951;-48
2023/04/27 08:02:52;;;;;;;2.80;1.70;;;;;;;11.00;100.00;99377.63;109416;1272;22251;-47
2023/04/27 08:05:28;;;;;;;3.00;1.90;;;;;;;10.84;100.00;99379.80;108895;1275;23210;-48
2023/04/27 08:08:08;;;;;;;1.60;1.50;;;;;;;10.72;100.00;99383.30;108671;1273;23292;-46
2023/04/27 08:10:38;;;;;;;2.30;1.70;;;;;;;10.65;100.00;99381.83;109021;1273;22534;-61
2023/04/27 08:13:08;;;;;;;1.80;1.70;;;;;;;10.59;100.00;99386.64;109793;1272;23183;-47
2023/04/27 08:15:36;;;;;;;1.70;1.50;;;;;;;10.50;100.00;99380.13;109230;1257;22641;-58
2023/04/27 08:18:03;;;;;;;2.40;1.70;;;;;;;10.42;100.00;99386.18;108645;1272;25496;-58
2023/04/27 08:20:31;;;;;;;3.00;1.70;;;;;;;10.32;100.00;99385.97;109568;1271;22368;-58
2023/04/27 08:22:58;;;;;;;3.10;1.50;;;;;;;10.21;100.00;99383.81;109678;1279;22364;-58
2023/04/27 08:25:25;;;;;;;2.20;2.00;;;;;;;10.12;100.00;99383.41;109509;1279;22460;-58
2023/04/27 08:27:58;;;;;;;2.90;1.70;;;;;;;10.04;100.00;99386.48;109323;1272;22453;-46
2023/04/27 08:30:36;;;;;;;2.00;1.60;;;;;;;9.96;100.00;99386.04;108999;1275;22120;-48
2023/04/27 08:33:07;;;;;;;2.70;1.50;;;;;;;9.87;100.00;99386.50;109367;1273;22391;-48
2023/04/27 08:35:41;;;;;;;2.50;1.70;;;;;;;9.77;100.00;99383.13;109693;1275;22315;-47
2023/04/27 08:38:09;;;;;;;2.10;1.90;;;;;;;9.69;100.00;99385.65;109480;1272;22409;-57
2023/04/27 08:40:43;;;;;;;2.60;1.90;;;;;;;9.62;100.00;99386.95;109065;1273;23170;-57
2023/04/27 08:43:18;;;;;;;4.10;1.70;;;;;;;9.56;100.00;99392.05;109576;1275;22516;-47
2023/04/27 08:46:03;;;;;;;7.30;2.00;;;;;;;9.52;100.00;99393.15;109176;1273;22406;-48
2023/04/27 08:48:30;;;;;;;2.70;1.80;;;;;;;9.49;100.00;99399.09;109052;1276;23393;-48
2023/04/27 08:50:58;;;;;;;2.50;1.70;;;;;;;9.41;100.00;99399.52;109449;1273;22623;-47
2023/04/27 08:53:29;;;;;;;4.00;2.00;;;;;;;9.34;100.00;99407.94;109304;1273;23711;-46
2023/04/27 08:55:57;;;;;;;5.20;1.90;;;;;;;9.28;100.00;99412.69;109233;1273;22389;-56
2023/04/27 08:58:38;;;;;;;3.50;1.90;;;;;;;9.22;100.00;99408.04;109816;1274;23080;-48
2023/04/27 09:01:11;;;;;;;3.60;1.70;;;;;;;9.18;100.00;99404.77;108439;1278;23025;-48
2023/04/27 09:03:38;;;;;;;5.20;2.00;;;;;;;9.18;100.00;99406.86;109370;1275;22409;-60
2023/04/27 09:06:08;;;;;;;4.30;1.80;;;;;;;9.19;100.00;99405.64;108582;1273;22560;-48
2023/04/27 09:08:46;;;;;;;2.50;2.00;;;;;;;9.20;100.00;99405.78;109573;1274;22810;-57
2023/04/27 09:11:15;;;;;;;2.20;1.80;;;;;;;9.22;100.00;99405.07;109737;1273;22230;-59
2023/04/27 09:13:44;;;;;;;2.90;1.70;;;;;;;9.22;100.00;99410.99;109487;1272;22450;-47
2023/04/27 09:16:15;;;;;;;4.10;1.70;;;;;;;9.25;100.00;99408.36;108283;1273;23328;-48
2023/04/27 09:18:42;;;;;;;3.20;1.40;;;;;;;9.29;100.00;99403.64;108262;1272;22542;-56
2023/04/27 09:21:10;;;;;;;1.60;1.30;;;;;;;9.28;100.00;99403.47;108525;1275;22523;-57
2023/04/27 09:23:43;;;;;;;6.90;1.60;;;;;;;9.28;100.00;99403.30;108882;1273;22409;-57
2023/04/27 09:26:20;;;;;;;1.20;1.10;;;;;;;9.30;100.00;99402.58;107578;1272;23239;-59
2023/04/27 09:28:51;;;;;;;1.90;1.30;;;;;;;9.30;100.00;99401.35;108188;1273;23606;-58
2023/04/27 09:31:20;;;;;;;1.80;1.40;;;;;;;9.33;100.00;99404.46;107777;1269;1261923;-57
2023/04/27 09:33:53;;;;;;;1.90;1.30;;;;;;;9.36;100.00;99405.66;109242;1276;22408;-58
2023/04/27 09:36:20;;;;;;;5.50;2.60;;;;;;;9.37;100.00;99405.99;108916;1275;23881;-58
2023/04/27 09:38:48;;;;;;;2.80;1.40;;;;;;;9.36;100.00;99405.30;109322;1275;23421;-48
2023/04/27 09:41:15;;;;;;;2.00;1.70;;;;;;;9.39;100.00;99411.89;109751;1273;22805;-49
2023/04/27 09:43:46;;;;;;;2.30;1.30;;;;;;;9.41;100.00;99415.89;109644;1271;22420;-47
2023/04/27 09:46:13;;;;;;;2.70;1.30;;;;;;;9.42;100.00;99417.95;109735;1272;23143;-58
2023/04/27 09:48:41;;;;;;;1.50;1.40;;;;;;;9.40;100.00;99415.02;109313;1272;23379;-59
2023/04/27 09:51:08;;;;;;;4.40;2.00;;;;;;;9.40;100.00;99417.64;109416;1273;23665;-54
2023/04/27 09:53:43;;;;;;;1.30;1.20;;;;;;;9.44;100.00;99420.02;109440;1272;22327;-58
2023/04/27 09:56:29;;;;;;;1.50;1.00;;;;;;;9.45;100.00;99417.41;109491;1273;22742;-58
2023/04/27 09:59:16;;;;;;;1.20;1.10;;;;;;;9.45;100.00;99414.45;109677;1273;22894;-49
2023/04/27 10:01:54;;;;;;;3.10;1.10;;;;;;;9.46;100.00;99412.70;108483;1273;22398;-51
2023/04/27 10:04:52;;;;;;;2.90;1.50;;;;;;;9.47;100.00;99411.12;109514;1279;23408;-62
2023/04/27 10:07:19;;;;;;;2.30;1.50;;;;;;;9.46;100.00;99406.42;109610;1272;22664;-50
2023/04/27 10:09:48;;;;;;;1.50;1.30;;;;;;;9.46;100.00;99408.52;109206;1272;22397;-61
2023/04/27 10:12:31;;;;;;;4.00;1.70;;;;;;;9.49;100.00;99414.58;109750;1273;23154;-59
2023/04/27 10:14:59;;;;;;;2.80;1.80;;;;;;;9.51;100.00;99422.58;109128;1272;22470;-48
2023/04/27 10:17:32;;;;;;;3.60;1.90;;;;;;;9.49;100.00;99417.55;109633;1272;22430;-47
2023/04/27 10:20:01;;;;;;;2.30;2.00;;;;;;;9.40;100.00;99416.05;109228;1272;22673;-47
2023/04/27 10:22:40;;;;;;;2.50;1.80;;;;;;;9.34;100.00;99416.29;109131;1273;22409;-47
2023/04/27 10:25:39;;;;;;;2.80;2.50;;;;;;;9.27;100.00;99426.95;109341;1272;22305;-58
2023/04/27 10:28:22;;;;;;;3.70;2.60;;;;;;;9.20;100.00;99432.75;109054;1272;22414;-48
2023/04/27 10:30:55;;;;;;;4.10;2.90;;;;;;;9.14;100.00;99432.98;109121;1273;22313;-48
2023/04/27 10:33:41;;;;;;;5.00;2.70;;;;;;;9.12;100.00;99433.70;109635;1272;22393;-51
2023/04/27 10:36:39;;;;;;;5.00;3.80;;;;;;;9.13;100.00;99434.73;109448;1275;22402;-47
2023/04/27 10:39:21;;;;;;;4.60;3.80;;;;;;;9.16;100.00;99431.58;109623;1272;22865;-50
2023/04/27 10:42:01;;;;;;;4.50;4.00;;;;;;;9.19;100.00;99438.33;109720;1276;22293;-49
2023/04/27 10:44:30;;;;;;;5.00;4.40;;;;;;;9.19;100.00;99437.64;109748;1273;22411;-59
2023/04/27 10:46:58;;;;;;;4.80;3.90;;;;;;;9.20;100.00;99436.58;109688;1279;22193;-57
2023/04/27 10:49:29;;;;;;;5.60;5.10;;;;;;;9.23;100.00;99439.52;109224;1275;23261;-57
2023/04/27 10:51:57;;;;;;;6.50;5.10;;;;;;;9.26;100.00;99443.48;109657;1273;23307;-62
2023/04/27 10:54:30;;;;;;;5.80;5.20;;;;;;;9.30;100.00;99444.34;109569;1273;22463;-47
2023/04/27 10:57:09;;;;;;;8.10;6.20;;;;;;;9.33;100.00;99447.27;109349;1273;23195;-47
2023/04/27 10:59:48;;;;;;;6.60;5.70;;;;;;;9.32;100.00;99444.48;109719;1277;22360;-46
2023/04/27 11:02:16;;;;;;;7.10;5.50;;;;;;;9.31;100.00;99442.59;109679;1276;22369;-47
2023/04/27 11:04:43;;;;;;;6.10;4.50;;;;;;;9.35;100.00;99436.12;109772;1276;22934;-46
2023/04/27 11:07:10;;;;;;;6.10;4.70;;;;;;;9.43;100.00;99434.83;109721;1276;23467;-46
2023/04/27 11:09:38;;;;;;;7.10;5.40;;;;;;;9.55;100.00;99432.11;109772;1279;22411;-47
2023/04/27 11:12:06;;;;;;;6.00;4.90;;;;;;;9.73;100.00;99428.27;109827;1277;23229;-47
2023/04/27 11:14:36;;;;;;;4.90;3.90;;;;;;;9.90;100.00;99434.71;109735;1273;22437;-46
2023/04/27 11:17:03;;;;;;;3.70;3.30;;;;;;;9.97;100.00;99441.08;109747;1279;22352;-47
2023/04/27 11:19:31;;;;;;;6.10;4.00;;;;;;;10.00;100.00;99441.92;109633;1273;22400;-47
2023/04/27 11:22:05;;;;;;;6.90;5.10;;;;;;;10.00;100.00;99443.84;109794;1279;23220;-47
2023/04/27 11:24:32;;;;;;;6.60;4.80;;;;;;;9.92;100.00;99444.63;109748;1273;22375;-48
2023/04/27 11:26:59;;;;;;;8.20;5.10;;;;;;;9.85;100.00;99444.50;109737;1280;22966;-49
2023/04/27 11:29:36;;;;;;;6.30;4.70;;;;;;;9.89;100.00;99443.77;109878;1277;23078;-47
2023/04/27 11:32:03;;;;;;;4.70;4.20;;;;;;;9.88;100.00;99450.58;109907;1276;22263;-47
2023/04/27 11:34:35;;;;;;;5.30;4.20;;;;;;;9.78;100.00;99458.52;109941;1276;22398;-46
2023/04/27 11:37:04;;;;;;;6.80;4.70;;;;;;;9.65;100.00;99461.44;109919;1273;22267;-47
2023/04/27 11:39:37;;;;;;;7.00;3.90;;;;;;;9.57;100.00;99456.98;109861;1276;22433;-48
2023/04/27 11:42:21;;;;;;;6.80;4.70;;;;;;;9.53;100.00;99466.06;109890;1273;22963;-47
2023/04/27 11:44:52;;;;;;;7.70;4.80;;;;;;;9.52;100.00;99466.61;109880;1272;23172;-47
2023/04/27 11:47:21;;;;;;;5.40;3.90;;;;;;;9.52;100.00;99467.13;109885;1276;22440;-45
2023/04/27 11:49:48;;;;;;;5.20;4.20;;;;;;;9.53;100.00;99468.33;109923;1279;22333;-46
2023/04/27 11:52:15;;;;;;;4.10;3.10;;;;;;;9.55;100.00;99471.96;109760;1279;22524;-47
2023/04/27 11:54:52;;;;;;;6.80;3.70;;;;;;;9.57;100.00;99472.83;109239;1279;22978;-47
2023/04/27 11:57:29;;;;;;;5.40;3.60;;;;;;;9.57;100.00;99476.14;109932;1279;23430;-46
2023/04/27 11:59:58;;;;;;;3.30;3.10;;;;;;;9.56;100.00;99481.54;109942;1280;23069;-47
2023/04/27 12:02:26;;;;;;;3.40;3.10;;;;;;;9.55;100.00;99483.80;109945;1279;22367;-57
2023/04/27 12:04:53;;;;;;;5.00;4.10;;;;;;;9.59;100.00;99484.65;109860;1279;22235;-47
2023/04/27 12:07:21;;;;;;;3.90;3.50;;;;;;;9.56;100.00;99487.46;109877;1275;22274;-46
2023/04/27 12:09:48;;;;;;;4.30;3.90;;;;;;;9.51;100.00;99488.90;109866;1275;22190;-56
2023/04/27 12:12:17;;;;;;;3.20;2.70;;;;;;;9.49;100.00;99484.89;109932;1273;22507;-47
2023/04/27 12:14:44;;;;;;;5.00;3.30;;;;;;;9.53;100.00;99485.40;109979;1279;22409;-47
2023/04/27 12:17:11;;;;;;;8.10;3.60;;;;;;;9.57;100.00;99482.40;109968;1279;23180;-58
2023/04/27 12:19:39;;;;;;;4.70;4.00;;;;;;;9.57;100.00;99485.71;109966;1279;22272;-48
